createdAt,value
2023-01-10T00:00:37.155Z,5.00
2023-01-10T00:03:10.579Z,5.20
2023-01-10T00:05:41.903Z,5.63
2023-01-10T00:08:16.664Z,4.70
2023-01-10T00:10:48.086Z,5.53
2023-01-10T00:13:25.258Z,5.30
2023-01-10T00:15:56.638Z,5.30
2023-01-10T00:18:27.979Z,5.37
2023-01-10T00:20:59.250Z,4.07
2023-01-10T00:23:30.553Z,5.47
2023-01-10T00:26:01.829Z,5.37
2023-01-10T00:28:35.953Z,5.30
2023-01-10T00:31:08.159Z,5.07
2023-01-10T00:33:39.527Z,6.87
2023-01-10T00:36:10.900Z,6.17
2023-01-10T00:38:42.166Z,6.53
2023-01-10T00:41:31.998Z,6.50
2023-01-10T00:44:03.466Z,7.33
2023-01-10T00:46:34.780Z,6.77
2023-01-10T00:49:08.169Z,7.23
2023-01-10T00:51:39.460Z,7.43
2023-01-10T00:54:12.216Z,7.47
2023-01-10T00:56:43.495Z,7.77
2023-01-10T00:59:14.792Z,8.73
2023-01-10T01:01:46.174Z,8.17
2023-01-10T01:04:17.830Z,7.60
2023-01-10T01:06:50.631Z,8.30
2023-01-10T01:09:21.932Z,8.43
2023-01-10T01:11:53.250Z,9.07
2023-01-10T01:14:24.832Z,8.30
2023-01-10T01:16:57.782Z,7.83
2023-01-10T01:19:29.065Z,7.50
2023-01-10T01:22:00.337Z,9.53
2023-01-10T01:24:31.595Z,8.27
2023-01-10T01:27:02.876Z,8.83
2023-01-10T01:29:43.037Z,8.13
2023-01-10T01:32:14.924Z,8.87
2023-01-10T01:34:46.497Z,8.47
2023-01-10T01:37:19.580Z,7.87
2023-01-10T01:39:50.896Z,8.63
2023-01-10T01:42:27.760Z,8.33
2023-01-10T01:45:08.454Z,7.60
2023-01-10T01:48:17.951Z,8.17
2023-01-10T01:50:56.030Z,7.50
2023-01-10T01:53:31.063Z,7.70
2023-01-10T01:56:19.652Z,8.00
2023-01-10T01:59:06.837Z,7.77
2023-01-10T02:01:40.230Z,8.03
2023-01-10T02:04:16.090Z,7.67
2023-01-10T02:06:50.442Z,8.18
2023-01-10T02:09:54.039Z,8.43
2023-01-10T02:12:28.889Z,7.87
2023-01-10T02:15:00.391Z,7.07
2023-01-10T02:17:31.734Z,8.20
2023-01-10T02:20:07.651Z,7.93
2023-01-10T02:23:23.469Z,8.35
2023-01-10T02:26:25.333Z,7.00
2023-01-10T02:29:18.269Z,6.97
2023-01-10T02:32:08.291Z,6.70
2023-01-10T02:34:58.960Z,7.57
2023-01-10T02:37:45.498Z,6.63
2023-01-10T02:40:35.419Z,6.95
2023-01-10T02:43:09.859Z,6.03
2023-01-10T02:46:04.090Z,6.13
2023-01-10T02:48:35.384Z,5.60
2023-01-10T02:51:22.472Z,5.43
2023-01-10T02:54:13.554Z,5.97
2023-01-10T02:57:15.722Z,5.30
2023-01-10T02:59:58.881Z,5.50
2023-01-10T03:02:44.491Z,5.50
2023-01-10T03:05:31.504Z,5.20
2023-01-10T03:08:33.809Z,5.43
2023-01-10T03:11:10.061Z,5.17
2023-01-10T03:16:26.544Z,4.60
2023-01-10T03:19:06.607Z,4.30
2023-01-10T03:21:40.903Z,4.17
2023-01-10T03:24:23.987Z,4.53
2023-01-10T03:27:02.614Z,4.77
2023-01-10T03:29:44.051Z,4.43
2023-01-10T03:32:19.535Z,4.30
2023-01-10T03:34:51.286Z,4.05
2023-01-10T03:37:45.603Z,5.17
2023-01-10T03:40:22.526Z,4.57
2023-01-10T03:43:22.153Z,5.20
2023-01-10T03:46:46.135Z,4.97
2023-01-10T03:49:20.571Z,3.37
2023-01-10T03:51:53.698Z,3.83
2023-01-10T03:54:25.484Z,4.13
2023-01-10T03:56:56.785Z,4.43
2023-01-10T03:59:29.671Z,4.50
2023-01-10T04:02:01.069Z,4.57
2023-01-10T04:04:32.533Z,5.30
2023-01-10T04:07:03.873Z,5.20
2023-01-10T04:09:35.218Z,4.87
2023-01-10T04:12:06.535Z,4.00
2023-01-10T04:14:37.955Z,4.03
2023-01-10T04:17:09.266Z,3.57
2023-01-10T04:19:40.655Z,5.03
2023-01-10T04:22:12.727Z,2.97
2023-01-10T04:24:44.288Z,4.23
2023-01-10T04:27:15.667Z,3.60
2023-01-10T04:29:47.337Z,3.73
2023-01-10T04:32:18.623Z,3.77
2023-01-10T04:34:49.914Z,3.53
2023-01-10T04:37:21.167Z,4.07
2023-01-10T04:39:52.420Z,3.20
2023-01-10T04:42:23.751Z,3.53
2023-01-10T04:44:55.024Z,4.20
2023-01-10T04:47:26.298Z,3.70
2023-01-10T04:49:57.582Z,4.03
2023-01-10T04:52:28.844Z,4.00
2023-01-10T04:55:00.136Z,4.20
2023-01-10T04:57:31.604Z,4.83
2023-01-10T05:00:03.230Z,4.00
2023-01-10T05:02:34.582Z,4.10
2023-01-10T05:05:06.272Z,3.70
2023-01-10T05:07:37.699Z,4.30
2023-01-10T05:10:09.717Z,3.80
2023-01-10T05:12:40.999Z,3.27
2023-01-10T05:15:13.245Z,3.10
2023-01-10T05:17:44.529Z,3.93
2023-01-10T05:20:16.051Z,3.67
2023-01-10T05:22:47.353Z,3.47
2023-01-10T05:25:18.661Z,3.67
2023-01-10T05:27:49.985Z,3.63
2023-01-10T05:30:21.398Z,3.73
2023-01-10T05:32:52.672Z,3.27
2023-01-10T05:35:23.979Z,4.07
2023-01-10T05:37:55.271Z,3.60
2023-01-10T05:40:26.591Z,3.97
2023-01-10T05:42:58.920Z,3.50
2023-01-10T05:45:30.365Z,3.30
2023-01-10T05:48:01.666Z,3.40
2023-01-10T05:50:33.108Z,3.83
2023-01-10T05:53:05.823Z,3.60
2023-01-10T05:55:37.200Z,3.73
2023-01-10T05:58:11.054Z,4.53
2023-01-10T06:00:42.622Z,3.43
2023-01-10T06:03:14.125Z,3.60
2023-01-10T06:05:48.470Z,3.37
2023-01-10T06:08:20.783Z,3.63
2023-01-10T06:10:52.686Z,3.97
2023-01-10T06:13:24.423Z,3.67
2023-01-10T06:15:55.749Z,3.50
2023-01-10T06:18:27.126Z,5.17
2023-01-10T06:20:58.432Z,3.93
2023-01-10T06:23:30.578Z,3.20
2023-01-10T06:26:02.073Z,3.53
2023-01-10T06:28:33.432Z,3.60
2023-01-10T06:31:04.930Z,3.80
2023-01-10T06:33:36.390Z,3.97
2023-01-10T06:36:08.248Z,3.83
2023-01-10T06:38:39.517Z,3.80
2023-01-10T06:41:13.498Z,4.07
2023-01-10T06:43:46.736Z,3.73
2023-01-10T06:46:19.428Z,3.70
2023-01-10T06:48:50.855Z,3.47
2023-01-10T06:51:22.208Z,3.63
2023-01-10T06:53:53.470Z,4.67
2023-01-10T06:56:24.804Z,3.67
2023-01-10T06:58:56.108Z,4.43
2023-01-10T07:01:28.143Z,4.03
2023-01-10T07:03:59.546Z,4.40
2023-01-10T07:06:31.699Z,4.47
2023-01-10T07:09:03.115Z,3.73
2023-01-10T07:11:35.884Z,3.97
2023-01-10T07:14:07.193Z,3.73
2023-01-10T07:16:39.450Z,4.27
2023-01-10T07:19:13.341Z,4.33
2023-01-10T07:21:44.771Z,5.00
2023-01-10T07:24:16.189Z,3.70
2023-01-10T07:26:47.478Z,4.77
2023-01-10T07:29:18.815Z,3.80
2023-01-10T07:31:50.101Z,4.33
2023-01-10T07:34:21.358Z,3.57
2023-01-10T07:36:52.629Z,3.93
2023-01-10T07:39:23.900Z,4.07
2023-01-10T07:41:56.211Z,4.40
2023-01-10T07:44:27.473Z,4.00
2023-01-10T07:46:59.016Z,3.77
2023-01-10T07:49:30.265Z,3.47
2023-01-10T07:52:01.635Z,4.13
2023-01-10T07:54:33.077Z,5.03
2023-01-10T07:57:04.377Z,3.70
2023-01-10T07:59:35.736Z,3.90
2023-01-10T08:02:09.722Z,5.33
2023-01-10T08:04:41.047Z,3.70
2023-01-10T08:07:12.367Z,4.00
2023-01-10T08:09:43.649Z,4.80
2023-01-10T08:12:14.977Z,3.93
2023-01-10T08:14:46.481Z,6.40
2023-01-10T08:17:17.893Z,5.57
2023-01-10T08:19:49.236Z,5.97
2023-01-10T08:22:20.623Z,4.90
2023-01-10T08:24:51.970Z,4.43
2023-01-10T08:27:23.257Z,4.40
2023-01-10T08:29:54.541Z,5.10
2023-01-10T08:32:25.952Z,3.83
2023-01-10T08:34:57.239Z,5.10
2023-01-10T08:37:28.844Z,4.33
2023-01-10T08:40:00.149Z,4.47
2023-01-10T08:42:31.637Z,5.57
2023-01-10T08:45:03.757Z,4.77
2023-01-10T08:47:35.042Z,5.87
2023-01-10T08:50:08.025Z,5.57
2023-01-10T08:52:39.646Z,3.93
2023-01-10T08:55:10.963Z,5.83
2023-01-10T08:57:42.252Z,4.23
2023-01-10T09:00:14.290Z,4.50
2023-01-10T09:02:45.731Z,6.57
2023-01-10T09:05:32.516Z,4.03
2023-01-10T09:08:04.272Z,4.17
2023-01-10T09:10:35.862Z,4.67
2023-01-10T09:13:07.289Z,4.13
2023-01-10T09:15:38.686Z,4.87
2023-01-10T09:18:12.669Z,4.40
2023-01-10T09:20:45.372Z,5.67
2023-01-10T09:23:20.119Z,5.13
2023-01-10T09:25:53.406Z,4.43
2023-01-10T09:28:24.787Z,4.90
2023-01-10T09:30:56.099Z,4.73
2023-01-10T09:33:32.279Z,4.23
2023-01-10T09:36:16.527Z,5.40
2023-01-10T09:38:47.824Z,4.93
2023-01-10T09:41:48.878Z,5.07
2023-01-10T09:44:54.676Z,4.97
2023-01-10T09:47:55.006Z,5.33
2023-01-10T09:50:36.023Z,4.40
2023-01-10T09:53:18.787Z,5.80
2023-01-10T09:55:56.397Z,5.77
2023-01-10T09:58:31.797Z,5.80
2023-01-10T10:01:11.436Z,4.60
2023-01-10T10:03:57.982Z,6.27
2023-01-10T10:06:29.480Z,4.68
2023-01-10T10:09:02.134Z,5.77
2023-01-10T10:11:47.774Z,5.73
2023-01-10T10:14:42.351Z,4.63
2023-01-10T10:17:34.995Z,5.03
2023-01-10T10:20:32.864Z,4.83
2023-01-10T10:23:17.157Z,5.70
2023-01-10T10:26:16.422Z,4.63
2023-01-10T10:29:11.427Z,4.80
2023-01-10T10:32:13.654Z,4.97
2023-01-10T10:34:49.453Z,4.53
2023-01-10T10:37:26.882Z,4.40
2023-01-10T10:40:05.546Z,5.57
2023-01-10T10:42:41.590Z,5.33
2023-01-10T10:45:18.598Z,4.88
2023-01-10T10:47:56.494Z,4.83
2023-01-10T10:50:33.233Z,4.40
2023-01-10T10:53:05.435Z,5.83
2023-01-10T10:55:37.690Z,4.70
2023-01-10T10:58:12.134Z,4.67
2023-01-10T11:00:43.539Z,4.43
2023-01-10T11:03:24.045Z,5.23
2023-01-10T11:05:56.439Z,5.53
2023-01-10T11:08:30.124Z,4.43
2023-01-10T11:11:06.634Z,4.93
2023-01-10T11:13:48.728Z,6.50
2023-01-10T11:16:32.542Z,5.00
2023-01-10T11:19:30.210Z,4.77
2023-01-10T11:22:06.573Z,4.47
2023-01-10T11:25:04.409Z,5.27
2023-01-10T11:27:46.717Z,5.00
2023-01-10T11:30:22.595Z,4.87
2023-01-10T11:32:57.481Z,5.65
2023-01-10T11:35:33.290Z,4.83
2023-01-10T11:38:18.253Z,5.22
2023-01-10T11:41:04.453Z,4.87
2023-01-10T11:43:38.567Z,5.32
2023-01-10T11:46:20.918Z,4.43
2023-01-10T11:49:19.349Z,5.50
2023-01-10T11:51:55.080Z,5.87
2023-01-10T11:54:29.733Z,5.88
2023-01-10T11:57:07.174Z,5.40
2023-01-10T11:59:39.103Z,5.60
2023-01-10T12:02:32.960Z,5.03
2023-01-10T12:05:09.135Z,5.33
2023-01-10T12:08:01.539Z,5.70
2023-01-10T12:10:34.099Z,6.10
2023-01-10T12:13:16.789Z,5.73
2023-01-10T12:15:49.258Z,6.40
2023-01-10T12:18:20.634Z,5.80
2023-01-10T12:20:52.679Z,7.57
2023-01-10T12:23:25.605Z,6.13
2023-01-10T12:26:11.137Z,6.13
2023-01-10T12:28:50.971Z,5.95
2023-01-10T12:31:23.252Z,6.00
2023-01-10T12:34:00.686Z,6.13
2023-01-10T12:36:41.104Z,5.37
2023-01-10T12:39:26.693Z,6.27
2023-01-10T12:42:31.575Z,6.93
2023-01-10T12:45:08.384Z,6.27
2023-01-10T12:48:12.434Z,5.63
2023-01-10T12:50:48.492Z,6.30
2023-01-10T12:53:38.829Z,5.85
2023-01-10T12:56:14.651Z,6.33
2023-01-10T12:58:53.620Z,7.13
2023-01-10T13:01:31.185Z,7.27
2023-01-10T13:04:15.819Z,6.40
2023-01-10T13:06:47.386Z,5.67
2023-01-10T13:09:27.174Z,6.37
2023-01-10T13:12:17.336Z,6.00
2023-01-10T13:14:53.212Z,5.70
2023-01-10T13:17:33.660Z,6.30
2023-01-10T13:20:17.182Z,5.40
2023-01-10T13:22:54.044Z,4.70
2023-01-10T13:25:29.567Z,4.57
2023-01-10T13:28:22.546Z,5.28
2023-01-10T13:30:57.970Z,4.67
2023-01-10T13:33:53.093Z,6.17
2023-01-10T13:36:28.249Z,5.00
2023-01-10T13:39:02.950Z,5.27
2023-01-10T13:42:18.331Z,5.10
2023-01-10T13:45:01.686Z,4.40
2023-01-10T13:47:38.826Z,4.67
2023-01-10T13:50:22.342Z,5.07
2023-01-10T13:53:08.355Z,5.00
2023-01-10T13:55:39.752Z,4.05
2023-01-10T13:58:13.918Z,4.43
2023-01-10T14:01:10.594Z,5.63
2023-01-10T14:03:45.769Z,4.45
2023-01-10T14:06:29.334Z,4.93
2023-01-10T14:09:20.850Z,4.50
2023-01-10T14:11:54.616Z,4.63
2023-01-10T14:14:30.258Z,4.80
2023-01-10T14:17:25.050Z,5.60
2023-01-10T14:20:04.451Z,4.10
2023-01-10T14:22:41.678Z,5.00
2023-01-10T14:25:21.832Z,4.53
2023-01-10T14:27:55.061Z,4.53
2023-01-10T14:30:32.819Z,4.33
2023-01-10T14:33:15.764Z,5.13
2023-01-10T14:35:54.663Z,5.13
2023-01-10T14:38:31.729Z,5.33
2023-01-10T14:41:07.249Z,4.33
2023-01-10T14:43:43.482Z,5.05
2023-01-10T14:46:24.797Z,5.65
2023-01-10T14:49:00.645Z,6.50
2023-01-10T14:51:32.049Z,6.25
2023-01-10T14:54:14.339Z,6.10
2023-01-10T14:56:50.930Z,6.50
2023-01-10T14:59:37.896Z,6.07
2023-01-10T15:02:25.053Z,5.53
2023-01-10T15:05:11.480Z,6.17
2023-01-10T15:07:42.963Z,5.50
2023-01-10T15:10:20.879Z,5.83
2023-01-10T15:12:55.922Z,6.13
2023-01-10T15:15:32.156Z,6.87
2023-01-10T15:20:39.756Z,7.93
2023-01-10T15:23:14.591Z,6.50
2023-01-10T15:25:54.158Z,7.97
2023-01-10T15:28:28.107Z,8.53
2023-01-10T15:30:59.778Z,6.67
2023-01-10T15:33:34.552Z,5.40
2023-01-10T15:36:17.468Z,6.07
2023-01-10T15:38:48.783Z,6.83
2023-01-10T15:41:23.386Z,7.13
2023-01-10T15:43:55.412Z,6.87
2023-01-10T15:46:26.974Z,8.87
2023-01-10T15:49:02.567Z,7.80
2023-01-10T15:51:38.672Z,6.93
2023-01-10T15:54:19.334Z,7.10
2023-01-10T15:56:52.945Z,7.37
2023-01-10T15:59:50.016Z,6.47
2023-01-10T16:02:33.929Z,7.28
2023-01-10T16:05:15.198Z,7.13
2023-01-10T16:07:46.892Z,7.37
2023-01-10T16:10:25.645Z,7.23
2023-01-10T16:13:28.742Z,7.53
2023-01-10T16:16:04.904Z,7.90
2023-01-10T16:18:36.292Z,7.95
2023-01-10T16:21:11.091Z,7.63
2023-01-10T16:23:45.895Z,7.37
2023-01-10T16:26:17.300Z,7.03
2023-01-10T16:28:48.623Z,7.90
2023-01-10T16:31:20.057Z,7.40
2023-01-10T16:33:51.755Z,8.47
2023-01-10T16:36:23.128Z,7.20
2023-01-10T16:38:54.474Z,7.90
2023-01-10T16:41:44.425Z,7.90
2023-01-10T16:44:15.867Z,6.40
2023-01-10T16:46:48.062Z,7.87
2023-01-10T16:49:20.615Z,8.17
2023-01-10T16:51:52.196Z,7.93
2023-01-10T16:54:25.712Z,9.83
2023-01-10T16:56:57.574Z,7.10
2023-01-10T16:59:28.936Z,8.80
2023-01-10T17:02:00.417Z,7.40
2023-01-10T17:04:32.753Z,8.67
2023-01-10T17:07:04.190Z,7.23
2023-01-10T17:09:35.516Z,8.77
2023-01-10T17:12:14.913Z,6.53
2023-01-10T17:14:48.103Z,6.00
2023-01-10T17:17:19.392Z,6.90
2023-01-10T17:19:50.681Z,6.43
2023-01-10T17:22:22.175Z,6.53
2023-01-10T17:24:53.484Z,7.73
2023-01-10T17:27:24.827Z,6.17
2023-01-10T17:29:56.177Z,6.33
2023-01-10T17:32:27.625Z,5.93
2023-01-10T17:34:58.905Z,4.73
2023-01-10T17:37:30.237Z,4.80
2023-01-10T17:40:01.853Z,6.40
2023-01-10T17:42:33.181Z,5.43
2023-01-10T17:45:04.817Z,6.57
2023-01-10T17:47:36.137Z,5.43
2023-01-10T17:50:07.825Z,5.03
2023-01-10T17:52:39.080Z,4.50
2023-01-10T17:55:10.419Z,6.67
2023-01-10T17:57:41.712Z,5.57
2023-01-10T18:00:13.787Z,5.90
2023-01-10T18:02:45.209Z,4.63
2023-01-10T18:05:16.571Z,4.23
2023-01-10T18:07:48.004Z,4.93
2023-01-10T18:10:19.413Z,5.90
2023-01-10T18:12:50.735Z,4.87
2023-01-10T18:15:22.512Z,4.53
2023-01-10T18:17:53.864Z,3.67
2023-01-10T18:20:25.158Z,4.40
2023-01-10T18:23:15.193Z,4.50
2023-01-10T18:26:01.495Z,4.87
2023-01-10T18:28:44.033Z,3.85
2023-01-10T18:31:17.469Z,3.47
2023-01-10T18:33:48.897Z,3.67
2023-01-10T18:36:22.739Z,3.50
2023-01-10T18:38:54.099Z,3.80
2023-01-10T18:41:25.385Z,3.93
2023-01-10T18:43:56.653Z,3.50
2023-01-10T18:46:28.742Z,4.00
2023-01-10T18:49:00.087Z,3.90
2023-01-10T18:51:31.473Z,5.53
2023-01-10T18:54:02.820Z,4.30
2023-01-10T18:56:34.148Z,4.00
2023-01-10T18:59:05.409Z,4.50
2023-01-10T19:01:36.788Z,3.40
2023-01-10T19:04:08.120Z,3.23
2023-01-10T19:06:39.522Z,3.97
2023-01-10T19:09:10.811Z,3.60
2023-01-10T19:11:42.075Z,2.90
2023-01-10T19:14:13.317Z,3.90
2023-01-10T19:16:44.660Z,3.77
2023-01-10T19:19:15.994Z,2.80
2023-01-10T19:21:47.370Z,2.80
2023-01-10T19:24:24.583Z,3.20
2023-01-10T19:26:56.332Z,3.13
2023-01-10T19:29:27.737Z,3.33
2023-01-10T19:32:00.473Z,2.60
2023-01-10T19:34:32.043Z,2.30
2023-01-10T19:37:03.424Z,2.03
2023-01-10T19:39:36.159Z,3.23
2023-01-10T19:42:07.479Z,2.40
2023-01-10T19:44:38.790Z,3.17
2023-01-10T19:47:11.559Z,2.73
2023-01-10T19:49:43.000Z,2.80
2023-01-10T19:52:14.317Z,2.80
2023-01-10T19:54:47.342Z,2.13
2023-01-10T19:57:18.729Z,2.43
2023-01-10T19:59:51.771Z,1.90
2023-01-10T20:02:23.750Z,2.33
2023-01-10T20:04:55.081Z,1.90
2023-01-10T20:07:26.499Z,2.03
2023-01-10T20:09:58.068Z,3.63
2023-01-10T20:12:29.382Z,2.53
2023-01-10T20:15:00.711Z,2.20
2023-01-10T20:17:33.157Z,3.07
2023-01-10T20:20:04.948Z,2.73
2023-01-10T20:22:36.223Z,2.70
2023-01-10T20:25:08.000Z,2.57
2023-01-10T20:27:39.357Z,2.23
2023-01-10T20:30:13.925Z,2.13
2023-01-10T20:32:45.298Z,3.30
2023-01-10T20:35:16.714Z,2.40
2023-01-10T20:37:48.441Z,2.90
2023-01-10T20:40:21.535Z,2.70
2023-01-10T20:42:52.917Z,2.30
2023-01-10T20:45:24.278Z,2.50
2023-01-10T20:47:56.355Z,2.27
2023-01-10T20:50:27.731Z,2.73
2023-01-10T20:52:58.996Z,2.90
2023-01-10T20:55:30.268Z,2.23
2023-01-10T20:58:02.025Z,3.37
2023-01-10T21:00:34.284Z,3.23
2023-01-10T21:03:06.592Z,2.20
2023-01-10T21:05:38.773Z,2.00
2023-01-10T21:08:10.108Z,2.13
2023-01-10T21:10:43.584Z,2.07
2023-01-10T21:13:15.007Z,1.83
2023-01-10T21:15:47.097Z,2.90
2023-01-10T21:18:18.521Z,2.33
2023-01-10T21:20:52.926Z,2.30
2023-01-10T21:23:25.483Z,1.80
2023-01-10T21:26:05.338Z,2.13
2023-01-10T21:28:39.436Z,1.93
2023-01-10T21:31:11.766Z,2.43
2023-01-10T21:33:43.394Z,1.67
2023-01-10T21:36:15.144Z,2.00
2023-01-10T21:38:46.477Z,1.83
2023-01-10T21:41:45.834Z,3.03
2023-01-10T21:44:17.115Z,2.00
2023-01-10T21:46:51.029Z,2.23
2023-01-10T21:49:22.817Z,2.50
2023-01-10T21:51:54.162Z,2.10
2023-01-10T21:54:25.566Z,2.03
2023-01-10T21:56:56.820Z,2.33
2023-01-10T21:59:28.100Z,2.33
2023-01-10T22:01:59.715Z,2.30
2023-01-10T22:04:31.206Z,2.33
2023-01-10T22:07:02.567Z,3.00
2023-01-10T22:09:34.046Z,2.50
2023-01-10T22:12:05.576Z,2.33
2023-01-10T22:14:36.836Z,2.47
2023-01-10T22:17:08.127Z,2.30
2023-01-10T22:19:40.392Z,2.30
2023-01-10T22:22:11.796Z,2.77
2023-01-10T22:24:46.594Z,2.57
2023-01-10T22:27:19.720Z,2.07
2023-01-10T22:29:50.984Z,2.67
2023-01-10T22:32:22.236Z,2.80
2023-01-10T22:34:53.567Z,2.40
2023-01-10T22:37:24.820Z,3.00
2023-01-10T22:39:56.093Z,2.60
2023-01-10T22:42:27.450Z,3.40
2023-01-10T22:44:58.705Z,2.17
2023-01-10T22:47:29.938Z,2.73
2023-01-10T22:50:01.313Z,2.10
2023-01-10T22:52:32.642Z,2.17
2023-01-10T22:55:04.226Z,2.30
2023-01-10T22:57:46.363Z,2.67
2023-01-10T23:00:19.593Z,3.03
2023-01-10T23:02:50.924Z,3.13
2023-01-10T23:05:22.323Z,3.03
2023-01-10T23:07:53.959Z,2.70
2023-01-10T23:10:30.728Z,2.67
2023-01-10T23:13:02.357Z,2.87
2023-01-10T23:15:33.852Z,2.50
2023-01-10T23:18:05.282Z,2.50
2023-01-10T23:20:36.652Z,2.60
2023-01-10T23:23:07.950Z,2.60
2023-01-10T23:25:39.211Z,2.83
2023-01-10T23:28:10.500Z,2.43
2023-01-10T23:30:41.818Z,2.70
2023-01-10T23:33:13.061Z,2.97
2023-01-10T23:35:44.313Z,2.67
2023-01-10T23:38:15.742Z,2.60
2023-01-10T23:40:47.220Z,2.57
2023-01-10T23:43:18.700Z,2.40
2023-01-10T23:45:50.637Z,2.37
2023-01-10T23:48:22.633Z,2.83
2023-01-10T23:50:53.941Z,2.40
2023-01-10T23:53:25.600Z,2.97
2023-01-10T23:55:58.060Z,3.30
2023-01-10T23:58:29.320Z,2.27
